Aérodrome :
LOGIN :

S'inscrire | Disclaimer

   EN    FR    IT 

 










Légende :    VFR   VFR Marginal   IFR   IFR Intensif   IFR Très Intensif
Visi : 
Plafond : 
>= 8 km
>= 3000ft
5 à 8 km
1000 à 3000 ft
1500m à 5 km
500 à 1000 ft
800 à 1500m
200 à 500 ft
< 800m
< 200 ft
Symboles :   Orages  Brouillard  Fortes neiges  Fortes précipitations  Vent > 20 kt
SIGMETs :   Divers  Orages  Givrage  Turbulence  Onde Orograph.  Cendres Volcan.







- Altitude de l'aérodrome : 235 ft
- Code IATA : BZG


EPBY - Bydgoszcz

DERNIER METAR :
  • 231800Z 27016KT 6000 -RA FEW009 SCT023 BKN031 10/08 Q0997

METARs EXPIRÉS :
  • 231730Z 27017KT 9999 FEW010 SCT020 09/08 Q0997
  • 231700Z 26017KT 9999 FEW011 SCT020 BKN027 10/08 Q0997
  • 231630Z 26017KT 9999 FEW010 SCT023 BKN027 09/08 Q0997
  • 231600Z 26018KT 9999 SCT010 BKN012 BKN021 09/08 Q0997
  • 231530Z 26021KT 9999 -RA SCT010 BKN018 BKN021 09/08 Q0998
  • 231500Z 26017KT 9999 FEW007 SCT009 BKN016 09/08 Q0998

TAF TAF EPBY
Valide du 23 à 18h jusqu'au 24 à 18h UTC


231730Z 2318/2418 28018KT 9999 BKN030
TEMPO 2318/2403 30020G35KT 4000 SHRA BKN014CB
TEMPO 2403/2415 30025G42KT
Pas de NOTAMs connus pour ce terrain.
1 SIGMET publié pour la FIR Warszawa (EPWW) :
 
Turbulence forte
EPWW SIGMET 3 VALID 231555/231955 EPWA
EPWW WARSAW FIR SEV TURB FCST ENTIRE FIR SFC/FL080 MOV SE NC=



MET'MAP, la Météo Aéronautique d'un coup d'oeil ! - Copyright ORBIFLY Décembre 2007 - Disclaimer

ORBIFLY MET'MAP TEAM :

Programmation & Développement : Alexandra Zaïnal
Conception & Développement : Baudouin d'Aumeries
Co-Programmation & Développement : Marc-Olivier Méhu
Soutien technique & logistique : Manuel Goepfert

Contact : metmap@orbifly.com




SOURCES & CREDITS :

   NOAA